createdAt,value
2022-10-17T00:04:20.275Z,100419.93
2022-10-17T00:09:23.271Z,100423.02
2022-10-17T00:14:26.200Z,100430.05
2022-10-17T00:19:29.102Z,100432.58
2022-10-17T00:24:32.043Z,100438.59
2022-10-17T00:29:34.991Z,100438.41
2022-10-17T00:34:37.905Z,100442.53
2022-10-17T00:39:40.800Z,100445.77
2022-10-17T00:44:47.095Z,100446.71
2022-10-17T00:49:50.533Z,100453.93
2022-10-17T00:55:29.578Z,100453.46
2022-10-17T01:00:32.787Z,100453.89
2022-10-17T01:05:37.113Z,100451.90
2022-10-17T01:11:02.627Z,100442.67
2022-10-17T01:16:52.310Z,100441.55
2022-10-17T01:22:04.077Z,100449.41
2022-10-17T01:27:35.307Z,100449.73
2022-10-17T01:32:57.863Z,100439.39
2022-10-17T01:38:14.786Z,100444.95
2022-10-17T01:43:30.126Z,100452.14
2022-10-17T01:48:38.768Z,100458.70
2022-10-17T01:54:06.919Z,100457.61
2022-10-17T01:59:17.443Z,100457.66
2022-10-17T02:04:20.609Z,100457.85
2022-10-17T02:09:26.524Z,100461.70
2022-10-17T02:14:45.060Z,100466.42
2022-10-17T02:20:20.033Z,100465.67
2022-10-17T02:26:04.903Z,100460.05
2022-10-17T02:31:22.736Z,100455.64
2022-10-17T02:36:46.123Z,100460.64
2022-10-17T02:41:52.540Z,100472.13
2022-10-17T02:47:16.147Z,100473.28
2022-10-17T02:52:31.253Z,100471.79
2022-10-17T02:57:41.061Z,100477.44
2022-10-17T03:02:48.509Z,100471.96
2022-10-17T03:07:52.372Z,100465.89
2022-10-17T03:12:55.982Z,100467.35
2022-10-17T03:17:58.886Z,100472.72
2022-10-17T03:23:02.101Z,100484.43
2022-10-17T03:28:05.688Z,100492.40
2022-10-17T03:33:08.591Z,100499.66
2022-10-17T03:38:11.463Z,100502.89
2022-10-17T03:43:14.353Z,100504.73
2022-10-17T03:48:17.229Z,100509.39
2022-10-17T03:53:20.177Z,100507.75
2022-10-17T03:58:23.305Z,100515.92
2022-10-17T04:03:26.230Z,100522.46
2022-10-17T04:08:29.981Z,100526.02
2022-10-17T04:13:33.981Z,100536.14
2022-10-17T04:18:36.924Z,100542.69
2022-10-17T04:23:40.244Z,100542.58
2022-10-17T04:28:43.138Z,100551.98
2022-10-17T04:33:50.864Z,100552.30
2022-10-17T04:38:54.013Z,100546.95
2022-10-17T04:43:56.897Z,100560.40
2022-10-17T04:48:59.797Z,100557.86
2022-10-17T04:54:02.722Z,100561.98
2022-10-17T04:59:05.688Z,100564.20
2022-10-17T05:04:08.596Z,100553.16
2022-10-17T05:09:11.502Z,100554.34
2022-10-17T05:14:15.575Z,100555.30
2022-10-17T05:19:18.667Z,100555.54
2022-10-17T05:24:21.847Z,100565.36
2022-10-17T05:29:24.754Z,100570.48
2022-10-17T05:34:27.716Z,100583.01
2022-10-17T05:39:30.633Z,100575.95
2022-10-17T05:44:33.702Z,100585.50
2022-10-17T05:49:52.626Z,100600.98
2022-10-17T05:54:55.657Z,100609.20
2022-10-17T05:59:58.566Z,100622.83
2022-10-17T06:05:01.512Z,100622.41
2022-10-17T06:10:04.981Z,100625.23
2022-10-17T06:15:08.549Z,100614.04
2022-10-17T07:29:11.749Z,100709.45
2022-10-17T07:34:14.792Z,100714.93
2022-10-17T07:39:17.812Z,100718.23
2022-10-17T07:44:21.060Z,100715.68
2022-10-17T07:49:24.034Z,100717.52
2022-10-17T07:54:26.935Z,100724.74
2022-10-17T07:59:29.843Z,100726.56
2022-10-17T08:04:34.777Z,100727.14
2022-10-17T08:09:37.804Z,100727.48
2022-10-17T08:14:42.538Z,100733.13
2022-10-17T08:19:45.431Z,100731.31
2022-10-17T08:24:48.343Z,100731.89
2022-10-17T08:29:54.825Z,100727.75
2022-10-17T08:34:57.748Z,100722.23
2022-10-17T08:40:00.681Z,100715.31
2022-10-17T08:45:17.057Z,100716.39
2022-10-17T08:50:36.833Z,100711.19
2022-10-17T08:55:51.680Z,100710.17
2022-10-17T09:01:24.233Z,100709.13
2022-10-17T09:06:45.211Z,100707.05
2022-10-17T09:12:24.783Z,100708.63
2022-10-17T09:17:54.944Z,100717.63
2022-10-17T09:23:11.865Z,100721.46
2022-10-17T09:28:31.300Z,100717.08
2022-10-17T09:33:54.234Z,100714.04
2022-10-17T09:39:02.002Z,100706.23
2022-10-17T09:44:23.052Z,100712.05
2022-10-17T09:49:39.473Z,100720.80
2022-10-17T09:55:15.446Z,100723.34
2022-10-17T10:00:28.038Z,100728.37
2022-10-17T10:05:31.196Z,100726.95
2022-10-17T10:10:34.278Z,100720.77
2022-10-17T10:15:46.602Z,100718.11
2022-10-17T10:21:04.467Z,100710.06
2022-10-17T10:26:25.933Z,100709.98
2022-10-17T10:31:37.083Z,100716.45
2022-10-17T10:36:52.918Z,100713.20
2022-10-17T10:41:56.007Z,100704.55
2022-10-17T10:47:22.740Z,100704.07
2022-10-17T10:53:07.930Z,100702.48
2022-10-17T10:58:48.670Z,100702.89
2022-10-17T11:04:49.212Z,100699.33
2022-10-17T11:10:47.738Z,100688.84
2022-10-17T11:16:18.070Z,100682.98
2022-10-17T11:21:48.604Z,100678.67
2022-10-17T11:27:06.645Z,100672.27
2022-10-17T11:32:25.089Z,100669.40
2022-10-17T11:37:34.674Z,100663.14
2022-10-17T11:43:20.263Z,100660.89
2022-10-17T11:48:39.147Z,100651.98
2022-10-17T11:53:51.219Z,100651.93
2022-10-17T12:58:28.476Z,100623.76
2022-10-17T13:03:44.348Z,100620.30
2022-10-17T13:09:03.577Z,100616.78
2022-10-17T13:14:14.757Z,100612.60
2022-10-17T13:19:25.462Z,100612.89
2022-10-17T13:24:33.049Z,100614.65
2022-10-17T13:29:44.475Z,100609.56
2022-10-17T13:35:04.392Z,100608.02
2022-10-17T13:46:25.383Z,100617.30
2022-10-17T13:51:28.703Z,100611.08
2022-10-17T13:56:32.401Z,100613.64
2022-10-17T14:01:38.325Z,100612.15
2022-10-17T14:06:51.134Z,100607.34
2022-10-17T14:12:08.638Z,100603.99
2022-10-17T14:17:30.897Z,100606.89
2022-10-17T14:22:38.562Z,100603.27
2022-10-17T14:28:14.137Z,100601.34
2022-10-17T14:33:26.341Z,100602.76
2022-10-17T14:38:30.621Z,100603.66
2022-10-17T14:43:33.556Z,100604.04
2022-10-17T14:48:36.656Z,100608.84
2022-10-17T14:54:21.562Z,100610.33
2022-10-17T14:59:52.194Z,100615.77
2022-10-17T15:04:48.906Z,100623.39
2022-10-17T15:09:54.131Z,100621.73
2022-10-17T15:14:57.354Z,100614.67
2022-10-17T15:20:00.726Z,100608.09
2022-10-17T15:25:04.017Z,100603.48
2022-10-17T15:30:29.227Z,100605.55
2022-10-17T15:35:32.248Z,100601.39
2022-10-17T15:40:35.186Z,100600.52
2022-10-17T15:45:38.139Z,100602.70
2022-10-17T15:50:41.049Z,100598.52
2022-10-17T15:55:44.030Z,100604.79
2022-10-17T16:00:48.007Z,100606.14
2022-10-17T16:05:50.940Z,100606.34
2022-10-17T16:10:54.077Z,100609.06
2022-10-17T16:15:57.922Z,100606.08
2022-10-17T16:21:04.137Z,100603.34
2022-10-17T16:26:08.278Z,100606.23
2022-10-17T16:31:24.017Z,100608.38
2022-10-17T16:36:27.001Z,100606.80
2022-10-17T16:41:33.971Z,100605.77
2022-10-17T16:46:38.257Z,100616.19
2022-10-17T16:51:41.166Z,100616.91
2022-10-17T16:56:44.107Z,100617.26
2022-10-17T17:01:47.003Z,100621.63
2022-10-17T17:06:50.000Z,100624.73
2022-10-17T17:11:52.917Z,100613.88
2022-10-17T17:16:55.869Z,100614.23
2022-10-17T17:21:58.809Z,100612.92
2022-10-17T17:27:01.910Z,100609.70
2022-10-17T17:32:05.092Z,100604.62
2022-10-17T17:37:08.035Z,100602.95
2022-10-17T17:42:10.965Z,100598.69
2022-10-17T17:47:13.881Z,100608.94
2022-10-17T17:52:16.939Z,100604.92
2022-10-17T17:57:19.840Z,100599.64
2022-10-17T18:02:22.758Z,100594.36
2022-10-17T18:07:25.702Z,100593.99
2022-10-17T18:12:30.455Z,100590.92
2022-10-17T18:17:34.644Z,100589.77
2022-10-17T18:22:37.544Z,100586.80
2022-10-17T18:27:40.447Z,100588.66
2022-10-17T18:32:43.405Z,100584.66
2022-10-17T18:37:46.409Z,100583.88
2022-10-17T18:42:49.330Z,100584.80
2022-10-17T18:47:54.887Z,100582.92
2022-10-17T18:52:57.780Z,100577.30
2022-10-17T18:58:00.783Z,100578.02
2022-10-17T19:03:05.020Z,100583.10
2022-10-17T19:08:07.973Z,100585.89
2022-10-17T19:13:11.934Z,100585.44
2022-10-17T19:18:14.897Z,100585.18
2022-10-17T19:23:17.791Z,100581.23
2022-10-17T19:28:20.710Z,100575.11
2022-10-17T19:33:23.992Z,100581.33
2022-10-17T19:38:26.953Z,100579.11
2022-10-17T19:43:29.858Z,100576.55
2022-10-17T19:48:35.535Z,100580.96
2022-10-17T19:53:39.010Z,100575.67
2022-10-17T19:58:45.641Z,100576.94
2022-10-17T20:03:49.515Z,100579.36
2022-10-17T20:08:53.601Z,100567.91
2022-10-17T20:13:57.554Z,100564.21
2022-10-17T20:19:12.788Z,100568.09
2022-10-17T20:24:17.188Z,100566.15
2022-10-17T20:29:21.543Z,100564.80
2022-10-17T20:34:25.091Z,100564.81
2022-10-17T20:39:28.553Z,100559.20
2022-10-17T20:44:31.582Z,100553.34
2022-10-17T20:49:34.603Z,100559.37
2022-10-17T20:54:37.768Z,100555.91
2022-10-17T20:59:40.793Z,100550.17
2022-10-17T21:04:46.767Z,100547.29
2022-10-17T21:09:50.036Z,100545.52
2022-10-17T21:14:52.956Z,100546.98
2022-10-17T21:19:56.125Z,100544.49
2022-10-17T21:24:59.056Z,100540.44
2022-10-17T21:30:02.539Z,100533.42
2022-10-17T21:35:06.316Z,100528.14
2022-10-17T21:40:10.278Z,100526.61
2022-10-17T21:45:15.699Z,100523.02
2022-10-17T21:50:19.065Z,100521.23
2022-10-17T21:55:21.937Z,100516.56
2022-10-17T22:00:24.942Z,100512.96
2022-10-17T22:05:27.905Z,100506.67
2022-10-17T22:10:30.946Z,100503.15
2022-10-17T22:15:33.937Z,100506.20
2022-10-17T22:20:36.963Z,100503.36
2022-10-17T22:25:39.863Z,100496.33
2022-10-17T22:30:42.794Z,100491.29
2022-10-17T22:35:46.590Z,100487.44
2022-10-17T22:40:49.499Z,100483.63
2022-10-17T22:45:58.296Z,100480.25
2022-10-17T22:51:02.558Z,100478.01
2022-10-17T22:56:10.818Z,100476.20
2022-10-17T23:01:18.068Z,100468.55
2022-10-17T23:06:21.650Z,100470.11
2022-10-17T23:11:24.708Z,100467.31
2022-10-17T23:16:27.670Z,100465.17
2022-10-17T23:21:30.571Z,100465.73
2022-10-17T23:26:33.508Z,100462.42
2022-10-17T23:31:36.472Z,100455.90
2022-10-17T23:36:39.508Z,100449.34
2022-10-17T23:41:42.437Z,100448.33
2022-10-17T23:46:45.372Z,100448.02
2022-10-17T23:51:48.283Z,100449.95
2022-10-17T23:56:51.198Z,100451.33
